MST,Max TemperatureF,Mean TemperatureF,Min TemperatureF,Max Dew PointF,MeanDew PointF,Min DewpointF,Max Humidity, Mean Humidity, Min Humidity, Max Sea Level PressureIn, Mean Sea Level PressureIn, Min Sea Level PressureIn, Max VisibilityMiles, Mean VisibilityMiles, Min VisibilityMiles, Max Wind SpeedMPH, Mean Wind SpeedMPH, Max Gust SpeedMPH,PrecipitationIn, CloudCover, Events, WindDirDegrees
2013-1-1,23,17,10,14,9,3,77,67,57,30.33,30.23,30.06,10,8,2,28,15,33,T,6,Snow,227
2013-1-2,26,9,-8,10,4,-9,86,68,50,30.51,30.36,30.15,10,10,10,23,11,29,0.00,2,,284
2013-1-3,25,14,2,8,1,-5,72,58,43,30.53,30.43,30.36,10,10,10,31,20,39,0.00,0,,223
2013-1-4,30,22,14,9,3,-1,58,49,39,30.34,30.27,30.18,10,10,10,29,19,36,0.00,0,,228
2013-1-5,28,20,11,9,3,-1,58,50,42,30.42,30.36,30.25,10,10,10,24,16,30,0.00,0,,226
2013-1-6,40,28,16,13,7,4,54,42,29,30.30,30.08,29.96,10,10,10,37,20,54,0.00,0,,230
2013-1-7,39,31,23,13,8,4,47,38,29,30.07,29.93,29.80,10,10,10,29,20,37,0.00,0,,218
2013-1-8,43,36,28,19,17,14,69,53,36,30.20,29.99,29.79,10,10,10,32,20,41,0.00,0,,231
2013-1-9,47,39,31,22,18,13,69,49,28,30.25,30.09,29.83,10,10,10,41,24,52,0.00,0,,215
2013-1-10,50,37,24,15,12,9,58,40,22,29.76,29.54,29.40,10,10,10,46,22,60,0.00,0,,221
2013-1-11,28,15,2,22,5,-6,88,75,62,30.10,29.63,29.38,10,4,0,25,9,31,0.09,8,Fog-Snow,17
2013-1-12,8,-2,-12,0,-5,-14,87,78,68,30.30,30.15,29.86,10,7,2,16,6,20,0.02,7,Snow,245
2013-1-13,8,0,-8,-2,-7,-20,83,73,63,30.40,30.32,30.01,10,8,3,13,8,17,T,4,Snow,242
2013-1-14,8,-1,-10,-4,-8,-14,82,69,56,30.41,30.32,30.01,10,10,10,26,18,33,0.00,1,,218
2013-1-15,22,14,5,9,4,-6,66,61,56,30.32,30.27,30.03,10,10,10,33,26,44,0.00,6,,213
2013-1-16,34,27,19,15,11,8,62,55,47,30.46,30.36,30.22,10,10,10,38,24,46,0.00,1,,215
2013-1-17,39,30,21,13,10,7,57,45,33,30.52,30.40,30.25,10,10,10,30,21,38,0.00,0,,218
2013-1-18,46,36,25,11,8,5,46,34,22,30.23,30.13,30.05,10,10,10,35,25,44,0.00,0,,219
2013-1-19,44,36,27,11,8,5,43,31,19,30.27,30.21,30.09,10,10,10,30,17,38,0.00,0,,221
2013-1-20,33,22,11,15,11,7,80,58,36,30.41,30.31,30.14,10,10,10,23,8,29,0.00,1,,283
2013-1-21,50,33,15,11,9,7,74,45,16,30.31,30.16,30.04,10,10,10,30,19,35,0.00,0,,234
2013-1-22,51,40,28,10,7,5,39,27,14,30.14,30.09,30.02,10,10,10,29,19,35,0.00,0,,216
2013-1-23,50,44,38,10,6,2,28,21,14,30.13,30.07,29.99,10,10,10,30,21,38,0.00,0,,220
2013-1-24,51,41,31,28,20,8,78,52,25,30.12,30.01,29.92,10,10,10,35,19,45,0.00,1,,233
2013-1-25,50,36,22,24,23,20,75,52,29,30.19,30.08,29.98,10,10,10,30,18,38,0.00,0,,229
2013-1-26,53,42,31,28,25,20,64,50,35,29.98,29.85,29.68,10,10,10,25,15,32,0.00,1,,224
2013-1-27,51,41,31,29,27,25,70,54,38,29.69,29.64,29.60,10,10,10,29,15,37,0.00,6,,221
2013-1-28,31,22,13,27,21,11,92,84,75,29.87,29.74,29.65,10,4,0,14,5,16,0.15,8,Fog-Snow,344
2013-1-29,27,13,-2,14,6,-5,84,67,50,30.21,29.96,29.68,10,9,5,22,12,28,T,3,Snow,281
2013-1-30,34,16,-2,19,11,-1,86,68,50,30.12,29.98,29.91,10,10,9,24,13,31,0.01,5,Snow,247
2013-1-31,42,29,15,22,18,12,84,64,43,30.24,30.11,29.91,10,10,10,18,8,31,T,5,Snow,213